Time;durP1;ratioP1;P1;durP2;ratioP2;P2;SDS_P1;SDS_P2;PMS_P1;PMS_P2;Temp;Humidity;BMP_temperature;BMP_pressure;BME280_temperature;BME280_humidity;BME280_pressure;Samples;Min_cycle;Max_cycle;Signal;HPM_P1;HPM_P2
2021/07/29 00:00:17;;;;;;;2.90;2.33;;;;;;;18.25;63.36;100923.03;3589006;40;20258;-76
2021/07/29 00:02:42;;;;;;;3.20;2.10;;;;;;;18.33;63.72;100920.38;3588350;40;20280;-76
2021/07/29 00:05:08;;;;;;;3.47;1.90;;;;;;;18.18;63.82;100915.31;3588657;40;20229;-76
2021/07/29 00:07:33;;;;;;;5.03;2.57;;;;;;;18.28;63.20;100920.38;3588447;40;20252;-76
2021/07/29 00:09:58;;;;;;;3.30;2.13;;;;;;;18.85;61.90;100911.09;3588177;40;20225;-76
2021/07/29 00:12:23;;;;;;;4.70;2.00;;;;;;;18.93;60.63;100907.50;3588617;40;20233;-76
2021/07/29 00:14:50;;;;;;;3.60;2.27;;;;;;;18.88;61.31;100914.50;3588631;40;20225;-76
2021/07/29 00:20:06;;;;;;;4.27;2.17;;;;;;;18.65;62.42;100919.13;3573540;40;20217;-76
2021/07/29 00:22:31;;;;;;;5.30;2.50;;;;;;;18.76;62.03;100906.91;3588596;40;20249;-76
2021/07/29 00:24:56;;;;;;;2.37;1.87;;;;;;;18.40;63.41;100903.88;3588691;40;20217;-76
2021/07/29 00:27:22;;;;;;;3.70;2.33;;;;;;;18.30;63.11;100907.41;3588421;40;20261;-76
2021/07/29 00:29:47;;;;;;;4.67;2.53;;;;;;;18.23;64.15;100908.38;3578869;40;20514;-77
2021/07/29 00:32:12;;;;;;;3.83;2.50;;;;;;;18.47;63.26;100918.50;3588502;40;20299;-76
2021/07/29 00:34:37;;;;;;;2.87;2.50;;;;;;;18.87;61.65;100917.13;3588633;40;20229;-76
2021/07/29 00:37:03;;;;;;;5.57;2.73;;;;;;;18.92;61.39;100900.63;3579365;40;20244;-76
2021/07/29 00:39:28;;;;;;;4.60;2.80;;;;;;;18.76;61.94;100900.84;3589009;40;20237;-77
2021/07/29 00:41:54;;;;;;;4.20;2.20;;;;;;;18.46;62.73;100893.41;3588436;40;20221;-76
2021/07/29 00:44:19;;;;;;;4.20;2.50;;;;;;;18.56;62.32;100895.06;3588303;40;20229;-75
2021/07/29 00:46:44;;;;;;;4.13;2.30;;;;;;;18.60;62.03;100894.13;3588478;40;20316;-78
2021/07/29 00:49:10;;;;;;;4.73;2.57;;;;;;;18.40;62.42;100880.53;3588125;40;20241;-75
2021/07/29 00:51:35;;;;;;;3.50;1.97;;;;;;;18.26;63.02;100895.34;3588623;40;20311;-75
2021/07/29 00:54:02;;;;;;;3.77;2.27;;;;;;;18.41;62.09;100885.72;3588726;40;20210;-75
2021/07/29 00:56:28;;;;;;;3.40;2.70;;;;;;;18.34;62.51;100885.81;3588662;40;20322;-76
2021/07/29 00:58:54;;;;;;;4.53;2.50;;;;;;;18.30;62.54;100873.72;3588400;40;20237;-75
2021/07/29 01:01:19;;;;;;;4.57;2.40;;;;;;;18.49;61.63;100890.81;3588210;40;20234;-75
2021/07/29 01:03:44;;;;;;;3.80;2.47;;;;;;;18.33;62.11;100887.53;3588653;40;20221;-75
2021/07/29 01:06:09;;;;;;;3.60;2.30;;;;;;;17.96;63.09;100887.91;3579529;40;20494;-75
2021/07/29 01:09:02;;;;;;;4.10;2.60;;;;;;;17.62;64.45;100889.94;3588587;40;20233;-76
2021/07/29 01:11:27;;;;;;;3.67;2.37;;;;;;;17.78;63.59;100875.97;3588403;40;20504;-75
2021/07/29 01:13:52;;;;;;;3.73;2.57;;;;;;;17.95;63.14;100879.28;3588299;40;20225;-75
2021/07/29 01:16:17;;;;;;;3.37;2.43;;;;;;;17.69;64.36;100870.03;3588223;40;20225;-75
2021/07/29 01:18:43;;;;;;;3.47;2.60;;;;;;;17.70;63.86;100864.84;3588319;40;20249;-75
2021/07/29 01:21:08;;;;;;;5.10;2.90;;;;;;;17.87;63.17;100856.91;3578865;40;20225;-76
2021/07/29 01:23:33;;;;;;;4.60;2.63;;;;;;;17.54;64.39;100865.00;3588823;40;20802;-75
2021/07/29 01:25:58;;;;;;;2.63;2.43;;;;;;;17.33;64.38;100858.22;3588668;40;20228;-75
2021/07/29 01:28:24;;;;;;;4.30;2.57;;;;;;;17.49;64.76;100856.38;3588587;40;20249;-75
2021/07/29 01:30:49;;;;;;;4.07;2.33;;;;;;;17.24;65.30;100853.13;3588271;40;20234;-75
2021/07/29 01:33:14;;;;;;;3.33;2.77;;;;;;;17.33;65.14;100849.59;3588639;40;20507;-75
2021/07/29 01:35:39;;;;;;;3.27;2.90;;;;;;;17.38;65.16;100853.88;3588593;40;20225;-75
2021/07/29 01:38:05;;;;;;;4.30;3.00;;;;;;;17.44;65.43;100850.38;3591221;40;20225;-75
2021/07/29 01:40:30;;;;;;;2.73;2.53;;;;;;;17.60;64.69;100849.38;3589034;40;20225;-75
2021/07/29 01:42:55;;;;;;;3.67;2.83;;;;;;;17.90;63.94;100843.91;3588276;40;20292;-75
2021/07/29 01:45:20;;;;;;;5.83;3.00;;;;;;;17.72;64.49;100831.13;3588484;40;20240;-77
2021/07/29 01:47:46;;;;;;;7.30;3.57;;;;;;;17.60;65.24;100842.47;3588391;40;20245;-75
2021/07/29 01:50:11;;;;;;;7.93;4.20;;;;;;;17.58;65.11;100836.44;3587985;40;20228;-76
2021/07/29 01:52:38;;;;;;;4.43;3.23;;;;;;;17.69;64.87;100831.19;3588511;40;20244;-75
2021/07/29 01:55:04;;;;;;;4.43;2.80;;;;;;;17.49;65.51;100831.34;3588488;40;20314;-75
2021/07/29 01:57:30;;;;;;;5.43;2.60;;;;;;;17.34;65.98;100826.28;3588314;40;20232;-75
2021/07/29 01:59:55;;;;;;;4.60;3.10;;;;;;;17.28;66.21;100825.47;3588783;40;20229;-75
2021/07/29 02:02:20;;;;;;;3.53;2.57;;;;;;;17.40;66.13;100828.00;3579433;40;20256;-75
2021/07/29 02:04:45;;;;;;;4.10;2.87;;;;;;;17.53;65.79;100825.28;3588612;40;20244;-75
2021/07/29 02:07:11;;;;;;;4.57;3.17;;;;;;;17.68;65.29;100822.53;3588408;40;20229;-76
2021/07/29 02:09:36;;;;;;;4.90;3.23;;;;;;;17.84;64.29;100829.31;3578617;40;20245;-74
2021/07/29 02:12:01;;;;;;;5.57;3.37;;;;;;;17.61;65.27;100823.47;3588305;40;20233;-77
2021/07/29 02:14:28;;;;;;;4.87;2.87;;;;;;;17.69;65.16;100816.47;3588555;40;20229;-76
2021/07/29 02:16:53;;;;;;;4.60;2.90;;;;;;;17.46;66.17;100810.66;3588113;40;20236;-77
2021/07/29 02:19:19;;;;;;;7.70;3.57;;;;;;;17.78;64.86;100812.97;3588167;40;20341;-77
2021/07/29 02:21:44;;;;;;;6.10;3.23;;;;;;;17.67;65.14;100812.19;3588682;40;20302;-76
2021/07/29 02:24:09;;;;;;;3.63;3.33;;;;;;;17.56;65.66;100827.84;3589473;40;20503;-76
2021/07/29 02:26:35;;;;;;;5.43;3.00;;;;;;;17.61;65.78;100820.91;3589751;40;20225;-76
2021/07/29 02:29:00;;;;;;;4.10;3.30;;;;;;;17.43;66.47;100825.38;3589703;40;20241;-76
2021/07/29 02:31:25;;;;;;;6.03;3.40;;;;;;;17.50;66.82;100827.03;3589608;40;20236;-76
2021/07/29 02:33:50;;;;;;;5.63;3.90;;;;;;;17.53;66.56;100827.00;3589730;40;20222;-76
2021/07/29 02:36:16;;;;;;;5.37;3.77;;;;;;;17.38;66.83;100827.09;3589751;40;20221;-76
2021/07/29 02:38:41;;;;;;;5.43;3.17;;;;;;;17.59;66.47;100826.97;3589875;40;20240;-76
2021/07/29 02:41:06;;;;;;;4.87;3.30;;;;;;;17.61;66.77;100823.47;3589690;40;20225;-77
2021/07/29 02:43:31;;;;;;;4.73;3.43;;;;;;;17.30;67.86;100823.72;3589879;40;20615;-76
2021/07/29 02:45:57;;;;;;;4.43;3.60;;;;;;;17.45;67.10;100810.69;3589004;40;20218;-76
2021/07/29 02:48:22;;;;;;;3.83;3.27;;;;;;;17.39;67.32;100813.28;3589516;40;20603;-76
2021/07/29 02:50:54;;;;;;;6.47;3.73;;;;;;;17.52;66.96;100815.81;3589648;40;20222;-76
2021/07/29 02:53:20;;;;;;;5.17;3.67;;;;;;;17.63;66.65;100813.09;3589472;40;20229;-76
2021/07/29 02:55:45;;;;;;;3.97;3.17;;;;;;;17.61;66.25;100805.34;3589511;40;20229;-76
2021/07/29 02:58:10;;;;;;;3.93;3.37;;;;;;;17.62;66.10;100799.28;3589545;40;20632;-77
2021/07/29 03:00:35;;;;;;;4.83;3.43;;;;;;;17.70;66.18;100801.81;3589406;40;20252;-76
2021/07/29 03:03:01;;;;;;;4.27;3.17;;;;;;;17.80;65.68;100799.09;3591009;40;20217;-75
2021/07/29 03:05:26;;;;;;;5.37;3.40;;;;;;;17.79;65.84;100802.59;3588368;40;20334;-75
2021/07/29 03:07:51;;;;;;;5.77;3.70;;;;;;;17.63;66.40;100805.31;3588569;40;20244;-76
2021/07/29 03:10:17;;;;;;;5.37;3.87;;;;;;;17.73;66.08;100797.44;3589030;40;20232;-76
2021/07/29 03:12:42;;;;;;;7.17;3.80;;;;;;;17.73;66.01;100801.78;3588829;40;20225;-76
2021/07/29 03:15:07;;;;;;;4.80;3.73;;;;;;;17.83;65.78;100800.81;3589003;40;20225;-76
2021/07/29 03:17:33;;;;;;;5.97;3.50;;;;;;;17.70;65.98;100799.22;3589004;40;20244;-76
2021/07/29 03:19:58;;;;;;;5.87;3.40;;;;;;;17.73;66.32;100802.63;3589151;40;20599;-76
2021/07/29 03:22:23;;;;;;;3.60;3.30;;;;;;;17.76;65.97;100805.19;3579713;40;20233;-76
2021/07/29 03:24:48;;;;;;;4.87;3.60;;;;;;;17.79;65.75;100805.19;3589058;40;20228;-76
2021/07/29 03:27:14;;;;;;;4.73;3.67;;;;;;;17.83;65.65;100814.59;3589118;40;20221;-76
2021/07/29 03:29:39;;;;;;;7.03;3.27;;;;;;;17.81;65.79;100820.69;3589447;40;20221;-75
2021/07/29 03:32:05;;;;;;;5.87;3.50;;;;;;;17.82;65.09;100807.72;3589039;40;20229;-76
2021/07/29 03:34:30;;;;;;;5.93;3.53;;;;;;;17.85;64.99;100807.69;3589041;40;20221;-76
2021/07/29 03:36:55;;;;;;;5.43;3.63;;;;;;;17.82;65.04;100807.72;3589365;40;20229;-76
2021/07/29 03:39:21;;;;;;;5.40;3.60;;;;;;;17.85;65.09;100805.09;3588884;40;20243;-76
2021/07/29 03:41:46;;;;;;;4.97;3.80;;;;;;;17.80;65.13;100803.41;3589002;40;20225;-76
2021/07/29 03:44:11;;;;;;;5.27;3.60;;;;;;;17.83;64.83;100812.00;3589213;40;20314;-76
2021/07/29 03:46:37;;;;;;;3.53;3.13;;;;;;;17.75;64.95;100810.38;3589292;40;20489;-76
2021/07/29 03:49:02;;;;;;;4.43;3.30;;;;;;;17.86;64.62;100804.22;3589043;40;20500;-76
2021/07/29 03:51:27;;;;;;;3.67;3.20;;;;;;;17.84;64.22;100812.88;3591441;40;20233;-76
2021/07/29 03:53:53;;;;;;;4.90;3.23;;;;;;;17.88;64.45;100805.06;3593514;40;20710;-76
2021/07/29 03:56:18;;;;;;;5.07;3.37;;;;;;;17.80;64.85;100801.69;3592892;40;20299;-76
2021/07/29 03:58:43;;;;;;;4.87;3.47;;;;;;;17.88;64.05;100809.38;3589170;40;20237;-76
2021/07/29 04:01:10;;;;;;;3.90;3.30;;;;;;;17.83;64.14;100801.66;3589209;40;20325;-76
2021/07/29 04:03:36;;;;;;;5.60;3.30;;;;;;;17.80;63.84;100801.69;3589042;40;20612;-77
2021/07/29 04:06:01;;;;;;;4.07;3.00;;;;;;;17.95;63.73;100808.44;3578762;40;20230;-77
2021/07/29 04:08:27;;;;;;;4.67;3.27;;;;;;;18.00;63.19;100812.69;3572389;40;20245;-76
2021/07/29 04:10:53;;;;;;;4.50;2.97;;;;;;;18.03;62.85;100814.41;3588915;40;20248;-76
2021/07/29 04:13:19;;;;;;;4.20;2.87;;;;;;;18.09;62.42;100811.72;3585610;40;20225;-76
2021/07/29 04:15:44;;;;;;;4.53;2.90;;;;;;;18.11;62.21;100812.59;3589025;40;20578;-76
2021/07/29 04:18:09;;;;;;;3.43;2.93;;;;;;;17.99;62.54;100813.56;3588527;40;20233;-77
2021/07/29 04:20:34;;;;;;;4.07;2.80;;;;;;;18.03;62.30;100815.25;3589301;40;20233;-76
2021/07/29 04:22:59;;;;;;;6.13;3.47;;;;;;;18.01;62.47;100810.97;3588663;40;20512;-76
2021/07/29 04:25:25;;;;;;;3.50;3.20;;;;;;;18.19;61.44;100815.94;3588397;40;20236;-76
2021/07/29 04:27:50;;;;;;;3.80;3.07;;;;;;;18.23;61.24;100822.81;3588897;40;20241;-76
2021/07/29 04:30:16;;;;;;;4.77;3.10;;;;;;;18.25;61.54;100828.81;3588246;40;20514;-76
2021/07/29 04:32:41;;;;;;;4.73;2.80;;;;;;;18.22;61.28;100832.31;3588850;40;20221;-77
2021/07/29 04:35:07;;;;;;;4.50;2.80;;;;;;;18.25;61.16;100836.59;3589091;40;20225;-76
2021/07/29 04:37:33;;;;;;;5.13;2.97;;;;;;;18.23;61.37;100843.56;3588824;40;20497;-76
2021/07/29 04:39:58;;;;;;;3.97;3.00;;;;;;;18.22;61.36;100844.41;3588801;40;20600;-76
2021/07/29 04:42:23;;;;;;;4.23;2.63;;;;;;;18.26;61.20;100831.41;3588499;40;20232;-76
2021/07/29 04:44:49;;;;;;;3.77;3.00;;;;;;;18.28;60.77;100832.22;3588386;40;20229;-77
2021/07/29 04:47:16;;;;;;;4.13;3.00;;;;;;;18.36;61.12;100834.75;3588355;40;20225;-76
2021/07/29 04:49:42;;;;;;;4.43;3.10;;;;;;;18.38;60.83;100826.09;3588816;40;20769;-76
2021/07/29 04:52:07;;;;;;;4.37;2.87;;;;;;;18.38;61.07;100817.47;3588245;40;20236;-76
2021/07/29 04:54:32;;;;;;;3.87;2.97;;;;;;;18.39;61.15;100824.38;3588432;40;20496;-76
2021/07/29 04:56:58;;;;;;;3.67;2.93;;;;;;;18.39;61.18;100829.56;3588651;40;20624;-76
2021/07/29 04:59:23;;;;;;;5.30;3.10;;;;;;;18.36;61.55;100829.56;3588660;40;20233;-76
2021/07/29 05:01:49;;;;;;;3.73;2.80;;;;;;;18.38;61.49;100833.03;3588694;40;20302;-77
2021/07/29 05:04:15;;;;;;;2.67;2.43;;;;;;;18.38;61.78;100833.03;3588615;40;20496;-75
2021/07/29 05:06:41;;;;;;;4.27;2.93;;;;;;;18.35;61.93;100827.88;3588468;40;20261;-76
2021/07/29 05:09:06;;;;;;;5.33;2.67;;;;;;;18.42;61.58;100826.94;3588486;40;20245;-76
2021/07/29 05:11:32;;;;;;;4.57;2.97;;;;;;;18.41;61.48;100831.25;3588335;40;20309;-76
2021/07/29 05:13:57;;;;;;;2.90;2.60;;;;;;;18.39;61.90;100826.97;3579010;40;20228;-76
2021/07/29 05:16:22;;;;;;;4.97;2.70;;;;;;;18.48;61.49;100832.03;3588329;40;20218;-76
2021/07/29 05:18:47;;;;;;;4.30;3.00;;;;;;;18.43;61.87;100828.63;3588087;40;20233;-76
2021/07/29 05:21:13;;;;;;;6.47;2.90;;;;;;;18.43;61.45;100826.88;3588721;40;20229;-75
2021/07/29 05:23:38;;;;;;;3.50;3.20;;;;;;;18.43;61.31;100828.63;3589839;40;20229;-76
2021/07/29 05:26:03;;;;;;;4.30;3.20;;;;;;;18.26;62.13;100827.94;3589170;40;20213;-76
2021/07/29 05:28:29;;;;;;;3.43;2.83;;;;;;;18.30;61.99;100827.03;3588507;40;20229;-76
2021/07/29 05:30:54;;;;;;;4.57;2.90;;;;;;;18.32;62.12;100828.72;3588176;40;20241;-76
2021/07/29 05:33:20;;;;;;;5.37;3.23;;;;;;;18.39;62.19;100824.38;3588384;40;20225;-76
2021/07/29 05:35:45;;;;;;;5.50;3.00;;;;;;;18.29;62.72;100820.13;3588384;40;20247;-76
2021/07/29 05:38:10;;;;;;;4.63;3.53;;;;;;;18.38;62.10;100820.06;3588074;40;20245;-76
2021/07/29 05:40:37;;;;;;;5.03;3.20;;;;;;;18.54;61.54;100825.03;3587271;40;20236;-75
2021/07/29 05:43:02;;;;;;;3.43;3.13;;;;;;;18.59;62.20;100825.81;3588273;40;20620;-76
2021/07/29 05:45:28;;;;;;;3.57;2.83;;;;;;;18.73;61.55;100823.03;3588208;40;20213;-75
2021/07/29 05:47:54;;;;;;;4.50;3.10;;;;;;;18.77;61.07;100812.59;3588654;40;20515;-76
2021/07/29 05:50:19;;;;;;;5.73;3.37;;;;;;;18.73;61.36;100829.09;3588249;40;20611;-77
2021/07/29 05:52:44;;;;;;;3.93;3.27;;;;;;;18.77;61.53;100820.38;3588270;40;20318;-75
2021/07/29 05:55:10;;;;;;;4.80;3.00;;;;;;;18.74;61.57;100815.22;3588140;40;20221;-75
2021/07/29 05:57:35;;;;;;;5.90;3.30;;;;;;;18.86;60.53;100825.44;3588076;40;20232;-76
2021/07/29 06:00:01;;;;;;;6.70;3.67;;;;;;;18.83;60.56;100828.06;3588109;40;20225;-75
2021/07/29 06:02:26;;;;;;;4.90;3.50;;;;;;;18.65;61.13;100820.53;3588061;40;20249;-75
2021/07/29 06:04:52;;;;;;;6.90;3.33;;;;;;;18.73;60.82;100830.81;3588627;40;20607;-75
2021/07/29 06:07:18;;;;;;;3.90;3.43;;;;;;;18.72;60.54;100817.00;3587259;40;20237;-75
2021/07/29 06:09:43;;;;;;;5.53;3.17;;;;;;;18.79;60.43;100815.19;3588080;40;20214;-75
2021/07/29 06:12:08;;;;;;;4.47;3.10;;;;;;;18.83;59.85;100806.47;3588257;40;20228;-76
2021/07/29 06:14:34;;;;;;;5.77;3.00;;;;;;;18.82;59.54;100803.00;3589302;40;20225;-76
2021/07/29 06:16:59;;;;;;;4.07;3.00;;;;;;;18.91;59.17;100802.88;3588201;40;20218;-76
2021/07/29 06:19:31;;;;;;;6.87;3.27;;;;;;;18.89;59.01;100816.75;3588234;40;20604;-77
2021/07/29 06:21:57;;;;;;;5.50;3.37;;;;;;;18.94;59.26;100804.56;3587954;40;20257;-75
2021/07/29 06:24:22;;;;;;;9.10;3.53;;;;;;;18.95;58.88;100807.13;3587471;40;20650;-77
2021/07/29 06:26:48;;;;;;;4.37;2.80;;;;;;;18.99;58.13;100813.13;3587869;40;20221;-76
2021/07/29 06:29:14;;;;;;;6.47;3.30;;;;;;;19.11;58.54;100810.34;3588020;40;20241;-76
2021/07/29 06:31:39;;;;;;;5.67;3.20;;;;;;;19.16;58.39;100803.34;3587926;40;20334;-76
2021/07/29 06:34:04;;;;;;;5.27;2.80;;;;;;;19.28;58.00;100811.81;3588244;40;20236;-75
2021/07/29 06:36:30;;;;;;;5.00;2.70;;;;;;;19.39;58.48;100803.88;3589218;40;20584;-75
2021/07/29 06:38:55;;;;;;;4.50;3.00;;;;;;;19.49;57.17;100801.06;3587295;40;20244;-75
2021/07/29 06:41:20;;;;;;;6.13;2.80;;;;;;;19.55;56.93;100800.09;3587981;40;20225;-76
2021/07/29 06:43:45;;;;;;;4.37;2.53;;;;;;;19.58;56.40;100805.25;3588240;40;20604;-76
2021/07/29 06:46:11;;;;;;;5.53;2.87;;;;;;;19.59;56.17;100807.84;3579122;40;20214;-76
2021/07/29 06:48:36;;;;;;;4.60;2.43;;;;;;;19.72;56.02;100803.25;3588070;40;20252;-76
2021/07/29 06:51:02;;;;;;;6.73;3.00;;;;;;;19.80;55.59;100801.38;3588303;40;20547;-76
2021/07/29 06:53:28;;;;;;;6.37;3.27;;;;;;;19.88;55.62;100789.06;3588098;40;20228;-75
2021/07/29 06:55:53;;;;;;;8.40;2.97;;;;;;;19.96;55.64;100795.88;3587999;40;20226;-76
2021/07/29 06:58:18;;;;;;;4.63;2.40;;;;;;;20.07;54.45;100799.09;3587959;40;20364;-76
2021/07/29 07:00:43;;;;;;;5.73;2.80;;;;;;;20.04;54.12;100806.09;3587810;40;20221;-76
2021/07/29 07:03:09;;;;;;;5.60;2.80;;;;;;;19.96;53.80;100808.00;3587607;40;20228;-76
2021/07/29 07:05:34;;;;;;;5.70;2.90;;;;;;;19.88;54.94;100815.94;3587566;40;20225;-75
2021/07/29 07:07:59;;;;;;;7.13;2.73;;;;;;;19.92;54.75;100807.19;3587605;40;20249;-76
2021/07/29 07:10:24;;;;;;;4.43;2.40;;;;;;;19.99;54.41;100815.75;3589000;40;20225;-78
2021/07/29 07:12:50;;;;;;;6.03;3.10;;;;;;;20.14;53.83;100823.28;3589290;40;20498;-77
2021/07/29 07:15:15;;;;;;;6.47;2.60;;;;;;;20.18;52.99;100825.75;3589782;40;20226;-76
2021/07/29 07:17:41;;;;;;;5.37;2.40;;;;;;;20.19;52.98;100813.63;3589391;40;20233;-76
2021/07/29 07:20:07;;;;;;;6.37;2.73;;;;;;;20.37;53.24;100816.72;3589225;40;20233;-75
2021/07/29 07:22:32;;;;;;;3.67;2.10;;;;;;;20.32;52.03;100821.13;3589820;40;20269;-77
2021/07/29 07:24:57;;;;;;;4.63;2.80;;;;;;;20.37;52.47;100821.94;3589921;40;20228;-76
2021/07/29 07:27:23;;;;;;;4.73;2.23;;;;;;;20.22;52.19;100816.19;3589620;40;20233;-76
2021/07/29 07:29:48;;;;;;;4.07;2.60;;;;;;;20.31;52.33;100823.78;3588609;40;20221;-76
2021/07/29 07:32:13;;;;;;;6.53;2.63;;;;;;;20.26;51.68;100833.44;3589229;40;20217;-76
2021/07/29 07:34:38;;;;;;;3.20;2.40;;;;;;;20.25;51.80;100819.56;3588965;40;20251;-75
2021/07/29 07:37:04;;;;;;;7.93;2.47;;;;;;;20.28;52.86;100824.72;3589517;40;20261;-76
2021/07/29 07:39:29;;;;;;;4.53;2.50;;;;;;;20.38;51.55;100814.97;3590080;40;20532;-76
2021/07/29 07:41:56;;;;;;;5.07;2.13;;;;;;;20.54;51.00;100811.16;3589771;40;20237;-76
2021/07/29 07:44:21;;;;;;;9.07;2.37;;;;;;;20.47;49.87;100809.56;3589985;40;20484;-74
2021/07/29 07:46:47;;;;;;;4.70;1.90;;;;;;;20.24;50.79;100824.78;3589309;40;20236;-74
2021/07/29 07:49:12;;;;;;;4.63;2.10;;;;;;;20.15;51.63;100820.66;3589671;40;20793;-75
2021/07/29 07:51:38;;;;;;;6.13;2.27;;;;;;;20.21;51.52;100814.44;3589287;40;20227;-76
2021/07/29 07:54:03;;;;;;;4.90;2.33;;;;;;;20.10;50.76;100819.88;3589365;40;20261;-76
2021/07/29 07:56:28;;;;;;;7.13;2.27;;;;;;;19.96;52.26;100811.47;3589147;40;20225;-75
2021/07/29 07:58:53;;;;;;;5.13;2.47;;;;;;;19.85;52.51;100815.16;3589743;40;20600;-76
2021/07/29 08:01:20;;;;;;;6.23;2.70;;;;;;;19.92;52.22;100821.94;3589031;40;20237;-75
2021/07/29 08:03:45;;;;;;;5.83;2.20;;;;;;;19.91;52.48;100810.69;3589523;40;20277;-75
2021/07/29 08:06:10;;;;;;;6.63;2.60;;;;;;;20.17;52.29;100816.25;3589491;40;20245;-76
2021/07/29 08:08:36;;;;;;;3.10;2.00;;;;;;;20.24;51.28;100817.88;3588927;40;20264;-77
2021/07/29 08:11:03;;;;;;;6.57;2.50;;;;;;;20.38;51.17;100815.81;3588226;40;20284;-75
2021/07/29 08:13:28;;;;;;;4.90;2.13;;;;;;;20.40;50.54;100810.59;3589218;40;20328;-76
2021/07/29 08:15:54;;;;;;;4.33;2.17;;;;;;;20.30;50.76;100811.66;3588932;40;20493;-76
2021/07/29 08:18:20;;;;;;;3.77;2.23;;;;;;;20.37;51.40;100821.94;3588997;40;20552;-75
2021/07/29 08:20:45;;;;;;;3.20;2.37;;;;;;;20.42;50.10;100809.69;3588815;40;20237;-76
2021/07/29 08:23:11;;;;;;;4.93;2.27;;;;;;;20.45;50.83;100821.75;3588683;40;20221;-76
2021/07/29 08:25:36;;;;;;;6.30;1.93;;;;;;;20.53;49.58;100814.63;3588318;40;20237;-73
2021/07/29 08:28:01;;;;;;;5.40;2.10;;;;;;;20.52;50.61;100811.19;3587711;40;20244;-69
2021/07/29 08:30:27;;;;;;;8.03;2.53;;;;;;;20.63;50.66;100810.97;3587754;40;20242;-69
2021/07/29 08:32:52;;;;;;;7.23;2.50;;;;;;;20.84;50.30;100811.34;3587752;40;20221;-69
2021/07/29 08:35:17;;;;;;;6.83;2.33;;;;;;;20.86;50.38;100809.53;3587916;40;20248;-69
2021/07/29 08:37:46;;;;;;;5.60;2.70;;;;;;;20.90;50.34;100815.56;3587834;40;20233;-69
2021/07/29 08:40:16;;;;;;;3.43;2.13;;;;;;;20.91;49.81;100810.31;3587503;40;20608;-69
2021/07/29 08:42:41;;;;;;;5.10;2.10;;;;;;;21.11;48.86;100804.66;3588228;40;20232;-70
2021/07/29 08:45:07;;;;;;;5.23;2.10;;;;;;;21.36;48.13;100804.00;3587892;40;20243;-71
2021/07/29 08:47:33;;;;;;;3.83;1.83;;;;;;;21.49;49.12;100809.75;3587688;40;20259;-71
2021/07/29 08:50:03;;;;;;;3.67;1.90;;;;;;;21.73;46.29;100807.41;3587946;40;20513;-70
2021/07/29 08:52:28;;;;;;;4.30;2.03;;;;;;;21.89;45.68;100824.34;3589007;40;20322;-70
2021/07/29 08:54:54;;;;;;;7.00;2.17;;;;;;;21.87;45.58;100807.03;3590590;40;20619;-70
2021/07/29 08:57:26;;;;;;;4.43;2.30;;;;;;;21.77;46.56;100801.22;3591416;40;20221;-70
2021/07/29 08:59:52;;;;;;;3.53;2.20;;;;;;;21.67;46.91;100812.75;3591700;40;20721;-69
2021/07/29 09:02:25;;;;;;;4.87;2.07;;;;;;;21.54;47.93;100815.69;3588729;40;20241;-70
2021/07/29 09:05:11;;;;;;;3.57;2.00;;;;;;;21.74;47.84;100816.09;3590531;40;20230;-70
2021/07/29 09:07:37;;;;;;;4.07;2.50;;;;;;;21.75;46.99;100809.97;3589640;40;20241;-70
2021/07/29 09:10:18;;;;;;;5.60;2.07;;;;;;;21.32;47.86;100820.59;3587619;40;20237;-70
2021/07/29 09:12:43;;;;;;;3.40;1.87;;;;;;;21.34;47.38;100823.19;3587422;40;20232;-70
2021/07/29 09:15:18;;;;;;;4.13;2.13;;;;;;;21.37;46.53;100820.50;3587551;40;20508;-70
2021/07/29 09:17:44;;;;;;;3.70;1.93;;;;;;;21.42;46.65;100816.88;3577484;40;20882;-69
2021/07/29 09:20:17;;;;;;;6.70;2.73;;;;;;;21.47;46.51;100812.41;3577561;40;20287;-70
2021/07/29 09:22:42;;;;;;;5.97;2.20;;;;;;;21.66;44.85;100808.41;3577613;40;20229;-70
2021/07/29 09:25:12;;;;;;;5.13;1.90;;;;;;;21.90;43.93;100806.94;3580664;40;20221;-70
2021/07/29 09:27:37;;;;;;;4.70;1.80;;;;;;;22.07;44.25;100810.78;3587488;40;20244;-70
2021/07/29 09:30:25;;;;;;;7.40;1.93;;;;;;;22.24;42.82;100808.56;3585205;40;20221;-70
2021/07/29 09:33:13;;;;;;;3.67;2.20;;;;;;;22.23;42.76;100834.72;3587072;40;20240;-70
2021/07/29 09:35:50;;;;;;;5.20;1.80;;;;;;;22.07;43.87;100815.19;3587539;40;20214;-70
2021/07/29 09:38:27;;;;;;;4.50;1.80;;;;;;;22.37;41.34;100811.69;3587219;40;20233;-70
2021/07/29 09:40:56;;;;;;;4.87;1.80;;;;;;;22.15;41.84;100813.19;3587471;40;20233;-70
2021/07/29 09:43:24;;;;;;;4.63;1.83;;;;;;;21.98;42.02;100810.22;3587220;40;20236;-70
2021/07/29 09:45:51;;;;;;;5.67;2.47;;;;;;;21.83;43.27;100806.25;3585983;40;20226;-70
2021/07/29 09:48:21;;;;;;;3.30;1.60;;;;;;;22.04;44.11;100823.94;3585652;40;20248;-69
2021/07/29 09:50:47;;;;;;;2.57;1.60;;;;;;;22.07;43.09;100810.78;3587248;40;20232;-69
2021/07/29 09:53:13;;;;;;;3.87;2.20;;;;;;;22.00;42.50;100814.50;3587537;40;20706;-70
2021/07/29 09:55:38;;;;;;;3.93;1.37;;;;;;;21.86;41.97;100820.97;3587422;40;20233;-70
2021/07/29 09:58:04;;;;;;;4.27;1.90;;;;;;;22.01;43.08;100818.81;3587279;40;20236;-70
2021/07/29 10:00:32;;;;;;;3.93;1.73;;;;;;;22.17;43.44;100814.00;3584228;40;20221;-70
2021/07/29 10:03:00;;;;;;;4.30;1.70;;;;;;;22.35;42.41;100816.09;3587001;40;20225;-70
2021/07/29 10:05:35;;;;;;;2.73;1.43;;;;;;;22.57;42.83;100821.56;3587101;40;20225;-70
2021/07/29 10:08:04;;;;;;;3.40;1.40;;;;;;;22.77;43.16;100812.25;3587403;40;20523;-70
2021/07/29 10:10:30;;;;;;;6.40;1.70;;;;;;;22.86;39.67;100813.69;3592727;40;20224;-70
2021/07/29 10:12:56;;;;;;;2.57;1.40;;;;;;;22.72;39.89;100823.72;3587257;40;20233;-70
2021/07/29 10:15:41;;;;;;;4.20;1.33;;;;;;;22.75;39.75;100827.09;3587070;40;20248;-70
2021/07/29 10:18:08;;;;;;;5.97;1.60;;;;;;;22.74;39.67;100827.16;3587196;40;20249;-70
2021/07/29 10:20:35;;;;;;;6.57;1.63;;;;;;;22.60;40.16;100829.31;3586557;40;20245;-70
2021/07/29 10:23:26;;;;;;;6.03;1.80;;;;;;;22.54;40.80;100827.75;3586937;40;20225;-70
2021/07/29 10:26:06;;;;;;;6.20;1.40;;;;;;;22.30;40.85;100823.22;3583165;40;20237;-70
2021/07/29 10:28:35;;;;;;;2.87;1.33;;;;;;;22.11;42.14;100830.69;3586920;40;20241;-70
2021/07/29 10:31:02;;;;;;;5.77;2.50;;;;;;;22.00;42.86;100830.13;3587286;40;20228;-70
2021/07/29 10:33:29;;;;;;;5.53;2.13;;;;;;;21.77;42.19;100834.25;3587171;40;20229;-70
2021/07/29 10:35:55;;;;;;;5.87;1.90;;;;;;;21.57;42.82;100832.16;3587065;40;20318;-70
2021/07/29 10:38:39;;;;;;;5.20;1.80;;;;;;;21.45;43.83;100842.00;3586751;40;20543;-70
2021/07/29 10:41:25;;;;;;;4.37;1.90;;;;;;;21.59;43.82;100842.50;3587094;40;20232;-70
2021/07/29 10:43:51;;;;;;;5.43;1.97;;;;;;;21.89;43.00;100846.97;3588262;40;20225;-70
2021/07/29 10:46:16;;;;;;;5.17;2.17;;;;;;;22.17;41.78;100837.50;3589317;40;20259;-70
2021/07/29 10:48:43;;;;;;;4.17;1.70;;;;;;;22.39;41.19;100823.78;3588319;40;20236;-70
2021/07/29 10:51:19;;;;;;;6.13;2.30;;;;;;;22.58;41.39;100824.16;3588223;40;20329;-70
2021/07/29 10:53:47;;;;;;;6.57;2.00;;;;;;;22.44;41.17;100826.28;3588583;40;20227;-70
2021/07/29 10:56:17;;;;;;;3.63;1.63;;;;;;;22.39;42.24;100822.94;3588228;40;20233;-70
2021/07/29 10:58:44;;;;;;;3.33;2.07;;;;;;;22.33;41.80;100835.31;3588035;40;20233;-70
2021/07/29 11:01:11;;;;;;;4.83;1.67;;;;;;;22.21;40.85;100831.31;3588343;40;20592;-70
2021/07/29 11:03:46;;;;;;;7.97;2.03;;;;;;;22.38;41.69;100833.44;3588232;40;20927;-70
2021/07/29 11:06:13;;;;;;;5.03;1.70;;;;;;;22.74;42.17;100835.81;3588458;40;20243;-70
2021/07/29 11:08:40;;;;;;;4.33;1.43;;;;;;;23.00;40.12;100825.44;3588267;40;20259;-71
2021/07/29 11:11:06;;;;;;;6.03;2.13;;;;;;;23.11;38.89;100841.63;3588311;40;20225;-71
2021/07/29 11:13:32;;;;;;;6.17;1.80;;;;;;;22.78;40.53;100837.44;3588402;40;20322;-70
2021/07/29 11:16:00;;;;;;;7.13;2.40;;;;;;;22.61;40.82;100841.47;3587826;40;20241;-69
2021/07/29 11:18:26;;;;;;;6.20;1.70;;;;;;;22.66;40.10;100821.31;3588286;40;20269;-71
2021/07/29 11:20:52;;;;;;;5.53;1.63;;;;;;;22.82;40.49;100831.22;3588063;40;20221;-70
2021/07/29 11:23:36;;;;;;;7.83;3.20;;;;;;;23.33;40.36;100828.75;3587964;40;20221;-70